Time;durP1;ratioP1;P1;durP2;ratioP2;P2;SDS_P1;SDS_P2;PMS_P1;PMS_P2;Temp;Humidity;BMP_temperature;BMP_pressure;BME280_temperature;BME280_humidity;BME280_pressure;Samples;Min_cycle;Max_cycle;Signal;HPM_P1;HPM_P2
2023/03/02 00:02:16;;;;;;;;;;;;;;;11.86;32.62;99667.19;4482554;32;34422;-83
2023/03/02 00:04:54;;;;;;;;;;;;;;;11.67;33.23;99666.00;4468609;32;35363;-83
2023/03/02 00:07:22;;;;;;;;;;;;;;;11.75;33.04;99663.53;4482969;32;33119;-84
2023/03/02 00:09:49;;;;;;;;;;;;;;;11.79;32.91;99667.06;4482250;32;33979;-84
2023/03/02 00:12:17;;;;;;;;;;;;;;;11.83;32.46;99659.34;4467946;32;35222;-82
2023/03/02 00:14:44;;;;;;;;;;;;;;;11.90;32.36;99662.94;4482342;32;34559;-83
2023/03/02 00:17:11;;;;;;;;;;;;;;;11.95;32.30;99663.00;4482720;32;33899;-83
2023/03/02 00:19:38;;;;;;;;;;;;;;;12.03;31.97;99654.44;4481956;32;34163;-83
2023/03/02 00:22:06;;;;;;;;;;;;;;;12.09;32.15;99651.09;4468553;32;34434;-84
2023/03/02 00:24:35;;;;;;;;;;;;;;;11.96;31.84;99655.22;4467778;32;35209;-84
2023/03/02 00:27:02;;;;;;;;;;;;;;;11.99;31.77;99644.00;4482185;32;33560;-83
2023/03/02 00:29:29;;;;;;;;;;;;;;;11.86;31.68;99649.00;4483548;32;34837;-83
2023/03/02 00:31:57;;;;;;;;;;;;;;;11.91;31.84;99646.47;4484196;32;35331;-83
2023/03/02 00:34:24;;;;;;;;;;;;;;;11.86;32.10;99645.56;4483912;32;34462;-83
2023/03/02 00:36:51;;;;;;;;;;;;;;;11.85;31.91;99643.78;4483702;32;33569;-83
2023/03/02 00:39:19;;;;;;;;;;;;;;;11.88;31.90;99636.03;4484176;32;34288;-83
2023/03/02 00:41:47;;;;;;;;;;;;;;;11.92;31.79;99637.81;4482736;32;34103;-83
2023/03/02 00:44:16;;;;;;;;;;;;;;;11.97;31.82;99632.69;4483919;32;35074;-83
2023/03/02 00:46:44;;;;;;;;;;;;;;;11.98;31.60;99630.13;4470623;32;33842;-83
2023/03/02 00:49:11;;;;;;;;;;;;;;;11.94;31.52;99630.94;4483832;32;34690;-83
2023/03/02 00:51:38;;;;;;;;;;;;;;;11.91;31.50;99631.75;4469571;32;34052;-83
2023/03/02 00:54:06;;;;;;;;;;;;;;;11.96;31.44;99634.41;4483867;32;34380;-83
2023/03/02 00:56:33;;;;;;;;;;;;;;;11.83;31.59;99632.47;4483820;32;34398;-83
2023/03/02 00:59:05;;;;;;;;;;;;;;;11.63;31.67;99627.84;4484627;32;34294;-84
2023/03/02 01:01:34;;;;;;;;;;;;;;;11.67;31.79;99627.03;4484065;32;34396;-84
2023/03/02 01:04:02;;;;;;;;;;;;;;;11.62;31.67;99618.28;4469609;32;34364;-82
2023/03/02 01:06:29;;;;;;;;;;;;;;;11.64;31.67;99615.72;4469847;32;33153;-84
2023/03/02 01:08:57;;;;;;;;;;;;;;;11.54;31.85;99603.44;4471639;32;33741;-84
2023/03/02 01:11:24;;;;;;;;;;;;;;;11.35;32.41;99607.47;4483519;32;34803;-83
2023/03/02 01:13:51;;;;;;;;;;;;;;;11.51;32.36;99604.25;4483913;32;33990;-85
2023/03/02 01:16:19;;;;;;;;;;;;;;;11.44;32.60;99600.72;4483983;32;33595;-85
2023/03/02 01:18:46;;;;;;;;;;;;;;;11.67;32.22;99595.88;4484076;32;34217;-82
2023/03/02 01:21:14;;;;;;;;;;;;;;;11.35;32.63;99597.09;4483610;32;35245;-84
2023/03/02 01:23:42;;;;;;;;;;;;;;;11.17;33.01;99593.34;4469629;32;34383;-83
2023/03/02 01:26:09;;;;;;;;;;;;;;;11.36;32.58;99589.31;4469096;32;33712;-86
2023/03/02 01:28:36;;;;;;;;;;;;;;;11.39;32.45;99580.72;4483578;32;34344;-85
2023/03/02 01:31:04;;;;;;;;;;;;;;;11.11;33.08;99575.06;4483792;32;34449;-83
2023/03/02 01:33:31;;;;;;;;;;;;;;;11.15;33.03;99576.88;4483472;32;35765;-83
2023/03/02 01:35:59;;;;;;;;;;;;;;;11.30;33.01;99570.19;4483116;32;33222;-84
2023/03/02 01:38:26;;;;;;;;;;;;;;;11.35;32.74;99566.81;4483967;32;34343;-86
2023/03/02 01:40:54;;;;;;;;;;;;;;;11.23;32.81;99558.81;4468716;32;35247;-83
2023/03/02 01:43:21;;;;;;;;;;;;;;;10.90;33.03;99564.31;4482179;32;35068;-85
2023/03/02 01:45:50;;;;;;;;;;;;;;;11.24;32.50;99559.69;4483930;32;33791;-83
2023/03/02 01:48:20;;;;;;;;;;;;;;;11.24;32.53;99552.78;4483061;32;33803;-84
2023/03/02 01:50:47;;;;;;;;;;;;;;;11.01;33.10;99549.81;4483402;32;33694;-83
2023/03/02 01:53:15;;;;;;;;;;;;;;;11.08;32.71;99546.47;4468891;32;34784;-85
2023/03/02 01:55:43;;;;;;;;;;;;;;;10.85;33.26;99547.78;4469495;32;33977;-86
2023/03/02 01:58:11;;;;;;;;;;;;;;;10.64;33.42;99545.69;4469300;32;34192;-84
2023/03/02 02:00:39;;;;;;;;;;;;;;;10.80;33.23;99539.06;4468914;32;33938;-83
2023/03/02 02:03:10;;;;;;;;;;;;;;;11.02;32.90;99546.34;4468875;32;35354;-84
2023/03/02 02:05:39;;;;;;;;;;;;;;;11.01;32.43;99535.97;4469015;32;33235;-85
2023/03/02 02:08:07;;;;;;;;;;;;;;;10.96;32.38;99533.28;4468936;32;34369;-83
2023/03/02 02:10:34;;;;;;;;;;;;;;;10.89;32.69;99528.84;4482778;32;33793;-83
2023/03/02 02:13:01;;;;;;;;;;;;;;;10.90;32.18;99531.44;4468972;32;34091;-87
2023/03/02 02:15:29;;;;;;;;;;;;;;;10.94;32.26;99524.59;4483038;32;33688;-85
2023/03/02 02:17:56;;;;;;;;;;;;;;;10.89;32.41;99521.06;4468160;32;34959;-85
2023/03/02 02:20:23;;;;;;;;;;;;;;;10.92;32.41;99529.78;4483464;32;34460;-87
2023/03/02 02:22:51;;;;;;;;;;;;;;;10.71;32.76;99525.06;4483180;32;35286;-83
2023/03/02 02:25:41;;;;;;;;;;;;;;;10.99;32.45;99517.78;4483787;32;33326;-83
2023/03/02 02:28:10;;;;;;;;;;;;;;;10.76;32.71;99514.81;4475136;32;35076;-83
2023/03/02 02:30:37;;;;;;;;;;;;;;;10.74;32.70;99519.06;4467917;32;34298;-83
2023/03/02 02:33:05;;;;;;;;;;;;;;;10.81;32.46;99522.66;4468807;32;35384;-84
2023/03/02 02:35:37;;;;;;;;;;;;;;;10.86;32.34;99518.41;4468138;32;34267;-84
2023/03/02 02:38:05;;;;;;;;;;;;;;;10.67;32.44;99522.41;4470182;32;34264;-85
2023/03/02 02:40:35;;;;;;;;;;;;;;;10.50;32.53;99516.91;4482548;32;35155;-85
2023/03/02 02:43:03;;;;;;;;;;;;;;;10.74;32.32;99524.25;4483514;32;33094;-84
2023/03/02 02:45:30;;;;;;;;;;;;;;;10.71;32.33;99519.00;4469113;32;33327;-82
2023/03/02 02:47:58;;;;;;;;;;;;;;;10.89;32.17;99523.66;4483220;32;34814;-86
2023/03/02 02:50:32;;;;;;;;;;;;;;;10.71;32.05;99519.88;4482204;32;35051;-84
2023/03/02 02:53:01;;;;;;;;;;;;;;;10.91;32.12;99516.75;4468925;32;35137;-83
2023/03/02 02:55:29;;;;;;;;;;;;;;;10.76;32.41;99520.00;4468856;32;33458;-85
2023/03/02 02:57:56;;;;;;;;;;;;;;;10.49;32.91;99512.56;4483026;32;34831;-84
2023/03/02 03:00:24;;;;;;;;;;;;;;;10.77;32.48;99507.88;4469238;32;34228;-84
2023/03/02 03:02:57;;;;;;;;;;;;;;;10.35;32.79;99508.84;4468272;32;35127;-84
2023/03/02 03:05:25;;;;;;;;;;;;;;;10.45;32.66;99506.47;4483259;32;34554;-85
2023/03/02 03:07:52;;;;;;;;;;;;;;;10.53;32.75;99509.22;4483252;32;35035;-82
2023/03/02 03:10:19;;;;;;;;;;;;;;;10.36;33.00;99502.81;4483104;32;35156;-84
2023/03/02 03:12:47;;;;;;;;;;;;;;;10.58;32.81;99504.09;4483178;32;34305;-82
2023/03/02 03:15:14;;;;;;;;;;;;;;;10.58;33.08;99506.69;4469135;32;33194;-84
2023/03/02 03:17:46;;;;;;;;;;;;;;;10.30;33.92;99505.28;4483093;32;34907;-84
2023/03/02 03:20:15;;;;;;;;;;;;;;;10.28;33.72;99507.00;4468944;32;34736;-84
2023/03/02 03:22:42;;;;;;;;;;;;;;;10.42;33.53;99506.41;4483345;32;34189;-85
2023/03/02 03:25:14;;;;;;;;;;;;;;;10.58;33.37;99517.06;4482952;32;34367;-83
2023/03/02 03:27:41;;;;;;;;;;;;;;;10.53;33.07;99514.41;4483114;32;33679;-83
2023/03/02 03:30:10;;;;;;;;;;;;;;;10.60;33.26;99520.53;4481960;32;33905;-87
2023/03/02 03:32:38;;;;;;;;;;;;;;;10.57;33.17;99507.50;4483107;32;34351;-85
2023/03/02 03:35:10;;;;;;;;;;;;;;;10.12;33.82;99511.84;4482752;32;33147;-84
2023/03/02 03:37:39;;;;;;;;;;;;;;;10.09;34.23;99514.38;4468646;32;34142;-85
2023/03/02 03:40:08;;;;;;;;;;;;;;;10.00;34.30;99516.78;4467579;32;35659;-84
2023/03/02 03:42:37;;;;;;;;;;;;;;;10.14;34.19;99522.22;4482701;32;34552;-85
2023/03/02 03:45:05;;;;;;;;;;;;;;;10.06;34.32;99524.66;4480653;32;33612;-84
2023/03/02 03:47:33;;;;;;;;;;;;;;;10.38;33.84;99527.03;4481710;32;33931;-84
2023/03/02 03:50:00;;;;;;;;;;;;;;;10.36;34.11;99520.97;4469312;32;35237;-83
2023/03/02 03:52:31;;;;;;;;;;;;;;;10.30;33.96;99521.69;4481417;31;34249;-84
2023/03/02 03:55:00;;;;;;;;;;;;;;;10.48;33.79;99522.06;4479315;32;34439;-84
2023/03/02 03:57:28;;;;;;;;;;;;;;;10.53;33.68;99526.44;4467737;32;32838;-85
2023/03/02 03:59:55;;;;;;;;;;;;;;;10.56;33.68;99526.50;4482428;32;35147;-85
2023/03/02 04:02:23;;;;;;;;;;;;;;;10.55;33.56;99528.25;4481226;32;34596;-85
2023/03/02 04:04:50;;;;;;;;;;;;;;;10.57;33.36;99531.75;4483044;32;33691;-85
2023/03/02 04:07:18;;;;;;;;;;;;;;;10.57;33.22;99536.94;4480731;31;33929;-86
2023/03/02 04:09:45;;;;;;;;;;;;;;;10.71;32.98;99532.84;4482956;32;35268;-85
2023/03/02 04:12:13;;;;;;;;;;;;;;;10.68;32.85;99530.22;4468022;32;34470;-85
2023/03/02 04:14:41;;;;;;;;;;;;;;;10.44;32.66;99525.44;4481811;32;33583;-85
2023/03/02 04:17:08;;;;;;;;;;;;;;;10.63;32.63;99536.16;4479474;31;33866;-84
2023/03/02 04:19:36;;;;;;;;;;;;;;;10.68;32.59;99538.00;4481939;32;35067;-85
2023/03/02 04:22:03;;;;;;;;;;;;;;;10.71;32.36;99538.03;4482584;32;34554;-85
2023/03/02 04:24:31;;;;;;;;;;;;;;;10.58;32.71;99533.50;4482517;32;33474;-84
2023/03/02 04:27:00;;;;;;;;;;;;;;;10.70;32.54;99531.09;4482369;32;34078;-84
2023/03/02 04:29:27;;;;;;;;;;;;;;;10.66;32.46;99531.91;4481767;32;35106;-84
2023/03/02 04:31:54;;;;;;;;;;;;;;;10.74;32.44;99524.25;4481501;32;34199;-84
2023/03/02 04:34:26;;;;;;;;;;;;;;;10.64;32.68;99533.59;4481015;32;32571;-83
2023/03/02 04:36:53;;;;;;;;;;;;;;;10.68;32.61;99527.63;4482352;32;34183;-85
2023/03/02 04:39:21;;;;;;;;;;;;;;;10.63;32.67;99521.47;4467809;32;34407;-85
2023/03/02 04:41:48;;;;;;;;;;;;;;;10.64;32.72;99524.94;4482078;32;34595;-86
2023/03/02 04:44:16;;;;;;;;;;;;;;;10.52;32.90;99520.41;4481885;32;33944;-84
2023/03/02 04:46:43;;;;;;;;;;;;;;;10.56;32.97;99516.16;4465828;31;34971;-85
2023/03/02 04:49:11;;;;;;;;;;;;;;;10.45;32.88;99513.34;4479211;31;34351;-85
2023/03/02 04:51:40;;;;;;;;;;;;;;;10.68;32.72;99516.34;4482155;32;33947;-84
2023/03/02 04:54:19;;;;;;;;;;;;;;;10.66;32.49;99505.97;4481724;32;33839;-84
2023/03/02 04:56:48;;;;;;;;;;;;;;;10.63;32.50;99511.09;4481089;31;34760;-84
2023/03/02 04:59:15;;;;;;;;;;;;;;;10.39;32.65;99516.72;4482080;32;34007;-85
2023/03/02 05:01:43;;;;;;;;;;;;;;;10.32;32.96;99522.63;4481580;32;34236;-84
2023/03/02 05:04:11;;;;;;;;;;;;;;;10.44;32.76;99514.19;4466748;32;34311;-85
2023/03/02 05:06:38;;;;;;;;;;;;;;;10.63;32.52;99524.06;4467711;32;34585;-86
2023/03/02 05:09:05;;;;;;;;;;;;;;;10.28;32.82;99520.81;4464271;32;34189;-84
2023/03/02 05:11:33;;;;;;;;;;;;;;;10.42;33.08;99513.31;4479824;32;33983;-84
2023/03/02 05:14:01;;;;;;;;;;;;;;;10.43;32.91;99522.84;4480118;32;33626;-85
2023/03/02 05:16:30;;;;;;;;;;;;;;;10.43;32.84;99523.69;4483356;32;34037;-84
2023/03/02 05:18:58;;;;;;;;;;;;;;;10.39;33.12;99516.72;4483112;32;34404;-84
2023/03/02 05:21:26;;;;;;;;;;;;;;;10.46;32.92;99528.09;4481641;32;33989;-83
2023/03/02 05:23:53;;;;;;;;;;;;;;;10.20;33.29;99525.81;4467990;32;33538;-84
2023/03/02 05:26:21;;;;;;;;;;;;;;;9.97;33.60;99527.06;4482494;32;34914;-84
2023/03/02 05:28:48;;;;;;;;;;;;;;;9.79;33.80;99524.94;4482873;32;33725;-84
2023/03/02 05:31:17;;;;;;;;;;;;;;;9.73;34.02;99532.56;4480984;31;34145;-84
2023/03/02 05:33:45;;;;;;;;;;;;;;;9.89;33.80;99529.50;4467294;32;33631;-85
2023/03/02 05:36:12;;;;;;;;;;;;;;;9.63;33.99;99541.88;4469281;32;34749;-85
2023/03/02 05:38:39;;;;;;;;;;;;;;;10.09;33.35;99537.69;4454963;32;33579;-84
2023/03/02 05:41:07;;;;;;;;;;;;;;;9.86;33.85;99539.78;4482482;32;34004;-83
2023/03/02 05:43:34;;;;;;;;;;;;;;;9.97;34.00;99533.12;4483867;32;33704;-83
2023/03/02 05:46:02;;;;;;;;;;;;;;;9.96;33.87;99540.84;4469047;32;34323;-83
2023/03/02 05:48:29;;;;;;;;;;;;;;;10.17;33.62;99546.47;4482929;32;33822;-84
2023/03/02 05:50:56;;;;;;;;;;;;;;;10.19;33.85;99539.62;4469634;32;34662;-84
2023/03/02 05:53:24;;;;;;;;;;;;;;;10.12;33.72;99537.75;4483140;32;34252;-84
2023/03/02 05:55:52;;;;;;;;;;;;;;;10.18;33.41;99536.97;4483140;32;33981;-85
2023/03/02 05:58:19;;;;;;;;;;;;;;;10.29;33.14;99545.00;4464889;32;34156;-84
2023/03/02 06:00:46;;;;;;;;;;;;;;;10.45;32.85;99544.44;4463403;32;34440;-83
2023/03/02 06:03:14;;;;;;;;;;;;;;;10.31;32.47;99549.38;4468685;32;32814;-82
2023/03/02 06:05:42;;;;;;;;;;;;;;;10.39;32.40;99542.63;4480125;31;34610;-83
2023/03/02 06:08:10;;;;;;;;;;;;;;;10.23;32.56;99546.59;4482151;32;34177;-82
2023/03/02 06:10:37;;;;;;;;;;;;;;;10.28;32.26;99544.13;4482956;32;33492;-83
2023/03/02 06:13:04;;;;;;;;;;;;;;;10.37;31.61;99536.53;4480932;32;33864;-84
2023/03/02 06:15:31;;;;;;;;;;;;;;;10.32;32.12;99550.25;4482317;31;33956;-82
2023/03/02 06:17:59;;;;;;;;;;;;;;;10.44;31.40;99547.91;4482813;31;35493;-83
2023/03/02 06:20:26;;;;;;;;;;;;;;;10.59;31.36;99542.13;4479401;32;34030;-84
2023/03/02 06:22:53;;;;;;;;;;;;;;;10.80;31.06;99539.94;4478807;31;33595;-85
2023/03/02 06:25:22;;;;;;;;;;;;;;;10.99;30.33;99551.50;4483670;32;34012;-82
2023/03/02 06:27:53;;;;;;;;;;;;;;;10.97;29.74;99550.59;4483542;32;34355;-84
2023/03/02 06:30:21;;;;;;;;;;;;;;;10.99;29.46;99556.69;4482100;32;34478;-81
2023/03/02 06:32:49;;;;;;;;;;;;;;;11.00;28.46;99563.62;4480271;32;33774;-82
2023/03/02 06:35:16;;;;;;;;;;;;;;;10.76;28.69;99558.87;4483639;32;34217;-84
2023/03/02 06:37:44;;;;;;;;;;;;;;;11.16;28.49;99564.75;4482565;32;34115;-83
2023/03/02 06:40:12;;;;;;;;;;;;;;;10.51;26.59;99562.72;4482700;32;34477;-83
2023/03/02 06:42:40;;;;;;;;;;;;;;;10.99;27.18;99569.66;4480749;31;34576;-83
2023/03/02 06:45:08;;;;;;;;;;;;;;;11.43;26.92;99572.97;4483238;32;34076;-83
2023/03/02 06:47:35;;;;;;;;;;;;;;;10.78;27.07;99577.94;4482841;31;34138;-83
2023/03/02 06:50:03;;;;;;;;;;;;;;;10.28;27.79;99582.13;4483569;32;33840;-83
2023/03/02 06:52:30;;;;;;;;;;;;;;;10.95;26.61;99580.84;4469616;32;33467;-83
2023/03/02 06:54:58;;;;;;;;;;;;;;;11.37;26.42;99574.63;4483093;32;34088;-83
2023/03/02 06:57:32;;;;;;;;;;;;;;;11.20;26.08;99582.13;4483594;32;34435;-83
2023/03/02 07:00:03;;;;;;;;;;;;;;;10.88;26.03;99582.44;4480779;31;33957;-82
2023/03/02 07:02:30;;;;;;;;;;;;;;;10.29;26.53;99579.56;4469400;32;33530;-83
2023/03/02 07:04:57;;;;;;;;;;;;;;;9.90;26.18;99587.34;4482125;32;34193;-82
2023/03/02 07:07:24;;;;;;;;;;;;;;;9.24;27.44;99584.09;4482578;32;34482;-83
2023/03/02 07:09:52;;;;;;;;;;;;;;;9.32;27.90;99586.88;4483283;32;34840;-83
2023/03/02 07:12:19;;;;;;;;;;;;;;;10.17;26.98;99589.66;4482126;32;33584;-83
2023/03/02 07:14:46;;;;;;;;;;;;;;;10.01;27.15;99588.44;4483346;32;33921;-83
2023/03/02 07:17:13;;;;;;;;;;;;;;;9.59;26.56;99586.66;4482546;32;33495;-83
2023/03/02 07:19:40;;;;;;;;;;;;;;;10.15;26.79;99578.38;4483205;32;34312;-83
2023/03/02 07:22:08;;;;;;;;;;;;;;;9.83;27.31;99582.87;4483024;32;33548;-81
2023/03/02 07:24:35;;;;;;;;;;;;;;;9.61;27.17;99584.09;4482179;32;34604;-83
2023/03/02 07:27:03;;;;;;;;;;;;;;;9.25;28.71;99585.84;4482102;32;34089;-83
2023/03/02 07:29:30;;;;;;;;;;;;;;;9.94;28.03;99583.97;4481430;32;34343;-83
2023/03/02 07:32:00;;;;;;;;;;;;;;;9.80;27.75;99582.78;4483333;32;34480;-82
2023/03/02 07:34:27;;;;;;;;;;;;;;;10.13;26.32;99580.94;4482140;32;34915;-83
2023/03/02 07:36:55;;;;;;;;;;;;;;;10.04;26.57;99585.03;4482391;32;34348;-80
2023/03/02 07:39:22;;;;;;;;;;;;;;;9.65;26.93;99591.94;4454039;32;923958;-83
2023/03/02 07:41:49;;;;;;;;;;;;;;;10.01;27.28;99591.03;4482798;32;33572;-82
2023/03/02 07:44:19;;;;;;;;;;;;;;;9.86;27.39;99586.41;4483211;32;34229;-81
2023/03/02 07:46:46;;;;;;;;;;;;;;;9.62;27.26;99588.41;4468963;32;35110;-82
2023/03/02 07:49:13;;;;;;;;;;;;;;;9.79;26.90;99594.00;4483073;32;34228;-81
2023/03/02 07:51:41;;;;;;;;;;;;;;;8.95;27.53;99590.25;4482859;32;33527;-82
2023/03/02 07:54:08;;;;;;;;;;;;;;;9.10;27.68;99584.59;4483043;32;35149;-82
2023/03/02 07:56:35;;;;;;;;;;;;;;;9.27;28.47;99594.50;4482937;32;35092;-82
2023/03/02 07:59:02;;;;;;;;;;;;;;;9.49;27.95;99592.44;4483148;32;34378;-81
2023/03/02 08:01:31;;;;;;;;;;;;;;;9.61;27.54;99594.44;4483091;32;34355;-82
2023/03/02 08:03:58;;;;;;;;;;;;;;;10.18;27.20;99584.50;4483022;32;33817;-82
2023/03/02 08:06:26;;;;;;;;;;;;;;;10.08;27.84;99587.75;4482892;32;35287;-81
2023/03/02 08:08:53;;;;;;;;;;;;;;;9.99;27.62;99590.13;4482994;32;34983;-81
2023/03/02 08:11:20;;;;;;;;;;;;;;;9.42;28.76;99575.00;4468546;32;33413;-82
2023/03/02 08:13:48;;;;;;;;;;;;;;;9.18;28.82;99583.94;4482749;32;34917;-81
2023/03/02 08:16:15;;;;;;;;;;;;;;;10.05;27.99;99572.13;4482889;32;34220;-82
2023/03/02 08:18:43;;;;;;;;;;;;;;;10.01;28.19;99579.81;4482883;32;34351;-81
2023/03/02 08:21:11;;;;;;;;;;;;;;;9.45;29.05;99575.97;4482983;32;33021;-82
2023/03/02 08:23:38;;;;;;;;;;;;;;;8.92;29.78;99579.81;4482900;32;33540;-82
2023/03/02 08:26:05;;;;;;;;;;;;;;;10.44;28.40;99573.81;4482865;32;34053;-82
2023/03/02 08:28:33;;;;;;;;;;;;;;;10.80;28.08;99567.59;4482666;32;35374;-81
2023/03/02 08:31:00;;;;;;;;;;;;;;;9.47;28.79;99574.31;4482696;32;33196;-82
2023/03/02 08:33:29;;;;;;;;;;;;;;;9.28;29.78;99572.13;4482575;32;34252;-83
2023/03/02 08:36:00;;;;;;;;;;;;;;;9.84;29.38;99567.34;4482372;32;34209;-83
2023/03/02 08:38:28;;;;;;;;;;;;;;;10.75;28.17;99562.31;4482591;32;34361;-81
2023/03/02 08:40:56;;;;;;;;;;;;;;;11.30;27.06;99562.41;4468222;32;33385;-81
2023/03/02 08:43:23;;;;;;;;;;;;;;;10.69;28.42;99554.44;4482294;32;34351;-82
2023/03/02 08:45:51;;;;;;;;;;;;;;;11.67;26.85;99563.84;4482441;32;35390;-82
2023/03/02 08:48:19;;;;;;;;;;;;;;;11.67;26.85;99556.91;4482106;32;34509;-82
2023/03/02 08:50:53;;;;;;;;;;;;;;;11.94;26.33;99553.00;4480356;32;33779;-81
2023/03/02 08:53:20;;;;;;;;;;;;;;;11.97;26.26;99549.53;4473595;31;33894;-84
2023/03/02 08:55:47;;;;;;;;;;;;;;;11.77;26.74;99550.13;4481340;31;35179;-83
2023/03/02 08:58:15;;;;;;;;;;;;;;;11.56;27.08;99552.41;4483358;32;34542;-83
2023/03/02 09:00:42;;;;;;;;;;;;;;;12.27;27.13;99554.25;4483206;32;33659;-81
2023/03/02 09:03:10;;;;;;;;;;;;;;;12.46;26.09;99553.63;4483386;31;34255;-85
2023/03/02 09:05:37;;;;;;;;;;;;;;;11.22;28.18;99556.22;4481215;31;35167;-86
2023/03/02 09:08:05;;;;;;;;;;;;;;;12.11;27.32;99548.88;4483393;32;34108;-84
2023/03/02 09:10:32;;;;;;;;;;;;;;;11.35;27.61;99555.53;4483530;32;33359;-85
2023/03/02 09:12:59;;;;;;;;;;;;;;;11.54;27.87;99546.31;4483584;32;33678;-86
2023/03/02 09:15:27;;;;;;;;;;;;;;;10.91;28.39;99553.97;4467895;32;33707;-84
2023/03/02 09:17:54;;;;;;;;;;;;;;;11.33;28.26;99552.06;4484211;32;34048;-83
2023/03/02 09:20:21;;;;;;;;;;;;;;;11.93;28.38;99548.63;4484304;32;33980;-85
2023/03/02 09:22:49;;;;;;;;;;;;;;;11.30;28.77;99549.41;4469780;32;33622;-85
2023/03/02 09:25:17;;;;;;;;;;;;;;;11.94;28.20;99545.19;4484479;32;34381;-86
2023/03/02 09:27:45;;;;;;;;;;;;;;;12.85;26.97;99534.09;4483943;32;34499;-83
2023/03/02 09:30:13;;;;;;;;;;;;;;;13.53;25.90;99539.03;4468171;32;32778;-86
2023/03/02 09:32:40;;;;;;;;;;;;;;;12.82;26.65;99542.72;4465337;32;34087;-85
2023/03/02 09:35:08;;;;;;;;;;;;;;;13.16;26.65;99537.84;4482290;32;34286;-86
2023/03/02 09:37:37;;;;;;;;;;;;;;;12.18;27.83;99537.69;4479728;31;34510;-82
2023/03/02 09:40:10;;;;;;;;;;;;;;;11.66;28.46;99542.16;4479028;31;33897;-81
2023/03/02 09:42:41;;;;;;;;;;;;;;;11.59;28.67;99548.16;4466143;32;34308;-82
2023/03/02 09:45:17;;;;;;;;;;;;;;;12.73;27.68;99544.34;4469189;32;33135;-82
2023/03/02 09:47:50;;;;;;;;;;;;;;;13.07;27.72;99533.44;4473401;32;34064;-82
2023/03/02 09:50:17;;;;;;;;;;;;;;;12.99;26.94;99529.88;4466717;32;33589;-83
2023/03/02 09:52:51;;;;;;;;;;;;;;;12.91;27.21;99542.81;4481126;32;33753;-82
2023/03/02 09:55:19;;;;;;;;;;;;;;;12.99;27.41;99540.28;4483835;32;33905;-82
2023/03/02 09:57:47;;;;;;;;;;;;;;;12.97;26.90;99541.16;4469258;32;34166;-84
2023/03/02 10:00:14;;;;;;;;;;;;;;;13.38;26.78;99533.72;4483910;32;33211;-82
2023/03/02 10:02:50;;;;;;;;;;;;;;;13.75;27.37;99528.72;4483703;32;35024;-82
2023/03/02 10:05:19;;;;;;;;;;;;;;;13.02;27.30;99529.91;4440885;32;33046;-83
2023/03/02 10:07:47;;;;;;;;;;;;;;;12.98;27.20;99543.75;4467333;32;34459;-82
2023/03/02 10:10:20;;;;;;;;;;;;;;;12.51;27.91;99530.28;4472717;32;33495;-82
2023/03/02 10:12:58;;;;;;;;;;;;;;;12.54;28.92;99525.09;4469563;32;33882;-82
2023/03/02 10:15:30;;;;;;;;;;;;;;;13.06;27.55;99530.78;4464145;32;33971;-82
2023/03/02 10:18:17;;;;;;;;;;;;;;;12.85;27.19;99534.09;4462620;32;34925;-82
2023/03/02 10:20:55;;;;;;;;;;;;;;;12.85;26.72;99534.09;4476717;32;33388;-82
2023/03/02 10:23:36;;;;;;;;;;;;;;;13.42;26.39;99517.25;4466979;32;33958;-83
2023/03/02 10:26:04;;;;;;;;;;;;;;;13.42;27.40;99522.44;4469296;32;34453;-83
2023/03/02 10:28:33;;;;;;;;;;;;;;;14.28;25.71;99510.72;4478005;32;34437;-81
2023/03/02 10:31:13;;;;;;;;;;;;;;;13.82;26.18;99509.66;4463856;32;34294;-81
2023/03/02 10:33:41;;;;;;;;;;;;;;;13.91;26.01;99507.09;4455628;32;34018;-82
2023/03/02 10:36:21;;;;;;;;;;;;;;;13.55;26.12;99526.88;4468008;32;34174;-84
2023/03/02 10:38:49;;;;;;;;;;;;;;;13.72;25.99;99510.47;4468000;32;34156;-82
2023/03/02 10:41:19;;;;;;;;;;;;;;;13.31;26.67;99513.69;4468011;32;33424;-82
2023/03/02 10:43:48;;;;;;;;;;;;;;;13.13;27.60;99509.16;4450713;32;34930;-82
2023/03/02 10:46:15;;;;;;;;;;;;;;;14.10;26.42;99497.63;4451130;32;34796;-82
2023/03/02 10:48:49;;;;;;;;;;;;;;;14.34;26.12;99494.22;4450797;32;35575;-83
2023/03/02 10:51:25;;;;;;;;;;;;;;;14.63;25.41;99481.28;4452259;32;33300;-82
2023/03/02 10:54:02;;;;;;;;;;;;;;;14.47;25.70;99485.56;4452655;32;33661;-82
2023/03/02 10:56:30;;;;;;;;;;;;;;;14.59;26.34;99488.22;4450759;32;34391;-82
2023/03/02 10:59:02;;;;;;;;;;;;;;;15.58;24.27;99476.88;4450977;32;34377;-82
2023/03/02 11:01:30;;;;;;;;;;;;;;;14.86;26.12;99483.03;4452226;32;33234;-82
2023/03/02 11:03:58;;;;;;;;;;;;;;;15.04;26.42;99477.81;4451899;32;34047;-84
2023/03/02 11:06:26;;;;;;;;;;;;;;;15.28;25.12;99477.78;4452455;32;33886;-83
2023/03/02 11:08:59;;;;;;;;;;;;;;;15.38;25.76;99472.53;4452186;32;34383;-84
2023/03/02 11:11:26;;;;;;;;;;;;;;;15.93;24.73;99460.22;4451531;32;33339;-84
2023/03/02 11:13:55;;;;;;;;;;;;;;;16.01;25.59;99465.41;4452162;32;33768;-83
2023/03/02 11:16:24;;;;;;;;;;;;;;;15.10;26.14;99467.34;4447096;32;34380;-82
2023/03/02 11:18:53;;;;;;;;;;;;;;;15.85;25.69;99459.37;4452122;32;34561;-82
2023/03/02 11:21:24;;;;;;;;;;;;;;;15.63;26.30;99460.28;4450844;32;33731;-83
2023/03/02 11:24:12;;;;;;;;;;;;;;;14.87;27.31;99459.53;4452062;32;35106;-82
2023/03/02 11:26:43;;;;;;;;;;;;;;;15.48;26.58;99469.91;4452163;32;33568;-83
2023/03/02 11:29:13;;;;;;;;;;;;;;;16.24;25.91;99457.44;4452166;32;34346;-82
2023/03/02 11:31:48;;;;;;;;;;;;;;;16.64;25.54;99462.44;4452138;32;33643;-83
2023/03/02 11:34:43;;;;;;;;;;;;;;;16.22;26.75;99457.47;4450724;32;35182;-82
2023/03/02 11:37:10;;;;;;;;;;;;;;;15.62;27.47;99451.59;4450231;32;34764;-82
2023/03/02 11:39:46;;;;;;;;;;;;;;;15.26;27.93;99457.75;4451873;32;35398;-83
2023/03/02 11:42:26;;;;;;;;;;;;;;;15.85;27.85;99450.69;4463969;32;34263;-82
2023/03/02 11:44:53;;;;;;;;;;;;;;;15.69;29.08;99448.12;4466383;32;33844;-82
2023/03/02 11:47:21;;;;;;;;;;;;;;;15.54;28.39;99445.53;4481410;31;34077;-84
2023/03/02 11:49:52;;;;;;;;;;;;;;;15.80;27.80;99446.34;4466932;31;35045;-82
2023/03/02 11:52:20;;;;;;;;;;;;;;;16.04;27.50;99442.75;4466676;32;33750;-82
2023/03/02 11:55:06;;;;;;;;;;;;;;;15.92;28.78;99441.94;4467523;32;34341;-82
2023/03/02 11:57:34;;;;;;;;;;;;;;;16.03;29.09;99435.78;4480248;32;33894;-82
2023/03/02 12:00:04;;;;;;;;;;;;;;;16.69;27.80;99440.56;4481398;32;34146;-82
2023/03/02 12:02:38;;;;;;;;;;;;;;;16.19;27.77;99438.31;4468541;32;33212;-82
2023/03/02 12:05:07;;;;;;;;;;;;;;;15.59;28.77;99428.06;4481111;32;33968;-82
2023/03/02 12:07:34;;;;;;;;;;;;;;;15.26;29.67;99434.25;4481657;32;35252;-82
2023/03/02 12:10:06;;;;;;;;;;;;;;;14.76;30.41;99435.16;4479147;32;33330;-82
2023/03/02 12:12:35;;;;;;;;;;;;;;;15.09;30.32;99439.50;4480745;32;33745;-81
2023/03/02 12:15:03;;;;;;;;;;;;;;;16.12;29.67;99427.00;4467340;32;34126;-82
2023/03/02 12:17:31;;;;;;;;;;;;;;;15.66;29.03;99426.34;4481008;32;34223;-82
2023/03/02 12:20:17;;;;;;;;;;;;;;;16.05;29.09;99415.69;4481560;32;34348;-83
2023/03/02 12:22:44;;;;;;;;;;;;;;;16.25;29.81;99425.16;4466896;32;33314;-82
2023/03/02 12:25:17;;;;;;;;;;;;;;;16.13;29.32;99422.63;4467430;32;34322;-82
2023/03/02 12:27:49;;;;;;;;;;;;;;;16.08;29.67;99409.59;4482376;32;34513;-85
2023/03/02 12:30:25;;;;;;;;;;;;;;;16.81;28.23;99412.59;4481268;32;35239;-83
2023/03/02 12:33:04;;;;;;;;;;;;;;;16.67;28.31;99416.19;4482465;32;34319;-82
2023/03/02 12:35:32;;;;;;;;;;;;;;;17.02;27.81;99413.28;4482745;32;34291;-82
2023/03/02 12:38:00;;;;;;;;;;;;;;;16.90;28.43;99416.00;4468378;32;35046;-83
2023/03/02 12:40:34;;;;;;;;;;;;;;;17.06;28.47;99410.62;4482616;32;35240;-83
2023/03/02 12:43:10;;;;;;;;;;;;;;;17.00;28.17;99404.56;4480363;32;33516;-84
2023/03/02 12:45:41;;;;;;;;;;;;;;;15.95;30.26;99402.72;4466664;32;33893;-83
2023/03/02 12:48:23;;;;;;;;;;;;;;;16.62;28.99;99397.00;4464326;31;34311;-83
2023/03/02 12:50:50;;;;;;;;;;;;;;;17.29;27.82;99395.53;4478460;32;34084;-84
2023/03/02 12:53:18;;;;;;;;;;;;;;;16.96;29.55;99388.88;4481185;32;33719;-84
2023/03/02 12:55:45;;;;;;;;;;;;;;;17.18;28.59;99386.94;4482151;32;34128;-84
2023/03/02 12:58:19;;;;;;;;;;;;;;;17.14;28.63;99390.47;4481439;32;35247;-83